• Join FlightAware (Why Join?)
  • Login
  • US Flag 
02:32PM EST


 

Airport Tracker/Info


-or-


 

Live Flight TrackerFlight Track Log ✈ VH-SVH ✈ 22-Jun-2013 ✈ YSCB / CBR - YGLB / GUL

Flight Track Log - Related Links

Times and Time Zones

All times are in EDT time to prevent confusion due to time zone crossing. See the VH-SVH flight status page for this flight to view local times or setup timezone preferences in your user account.

Time Position Orientation Groundspeed Altitude Reporting Facility
EDT Latitude Longitude Course Direction KTS MPH feet Rate Location/Type
10:45PM -35.3156 149.2079 74° East 81 93 2,300  Level Aus ATC (RADAR)
10:45PM -35.3125 149.2211 74° East 85 98 2,700 600 Climbing Aus ATC (RADAR)
10:47PM -35.2696 149.2455 25° Northeast 85 98 3,900 480 Climbing Aus ATC (RADAR)
10:48PM -35.2480 149.2649 36° Northeast 91 105 4,300 360 Climbing Aus ATC (RADAR)
10:49PM -35.2359 149.2768 39° Northeast 97 112 4,500 120 Climbing Aus ATC (RADAR)
10:50PM -35.2165 149.2954 38° Northeast 106 122 4,500 -120 Level Aus ATC (RADAR)
10:50PM -35.2022 149.3101 40° Northeast 112 129 4,400 -180 Descending Aus ATC (RADAR)
10:51PM -35.1764 149.3344 38° Northeast 111 128 4,300 -120 Descending Aus ATC (RADAR)
10:52PM -35.1591 149.3541 43° Northeast 101 116 4,200 -60 Descending Aus ATC (RADAR)
10:53PM -35.1409 149.3740 42° Northeast 101 116 4,200  Level Aus ATC (RADAR)
10:56PM -35.0570 149.4634 41° Northeast -1,260 Descending Aus ATC (Calculated)
10:58PM -35.0400 149.4815 41° Northeast  Level FlightAware Approximate
10:59PM -35.0233 149.4993 41° Northeast  Level FlightAware Approximate
11:00PM -35.0067 149.5172 41° Northeast  Level FlightAware Approximate
11:01PM -34.9900 149.5350 41° Northeast  Level FlightAware Approximate
11:01PM -34.9337 149.5951 221° Southwest  Level Aus ATC (Calculated)
11:02PM -34.9733 149.5528 41° Northeast  Level FlightAware Approximate
11:03PM -34.9114 149.6189 41° Northeast  Level FlightAware Approximate
11:04PM -34.8947 149.6366 41° Northeast  Level FlightAware Approximate
11:04PM -34.8720 149.6608 221° Southwest  Level Aus ATC (Calculated)
11:05PM -34.8780 149.6544 41° Northeast  Level FlightAware Approximate
11:05PM -34.8720 149.6608 41° Northeast  Level Aus ATC (Calculated)
11:07PM -34.8508 149.6833 41° Northeast  Level FlightAware Approximate
11:08PM -34.8341 149.7011 41° Northeast  Level FlightAware Approximate
11:09PM -34.8174 149.7188 41° Northeast  Level FlightAware Approximate
11:10PM -34.8103 149.7264 41° Northeast  Level Estimated
11:11PM -34.8103 149.7264 48° Northeast  Level Estimated
11:12PM -34.8103 149.7264 48° Northeast  Level Estimated
11:13PM -34.8103 149.7264 48° Northeast  Level Estimated
11:14PM -34.8103 149.7264 48° Northeast  Level Estimated
11:15PM -34.8103 149.7264 48° Northeast  Level Estimated
11:16PM -34.8103 149.7264 48° Northeast  Level Estimated